Miyajimamaru — JK5560 — position and weather

sailwx.info

Track history (hours):
 
Tides and Currents Weather Stations Pressure Air Temp Water Temp Dewpoint Dewpoint Depression Visibility Wind Speed Wind Dir Waves Ship Positions

Miyajimamaru

Last reported at 2017-Sep-15 07:26 UTC. Time now 2017-Sep-22 04:17 UTC.
Position N 34°36' E 135°05'.

Length 52 m.

Type: Cargo ship. MMSI: 431401913.

Date/timePositionNaut miles runAvg speedWind from/ knotsBaromVisibWave heightAir tempDewpointWater temp
2017-Sep-15 07:26N 34°36' E 135°05'511.4
2017-Sep-15 07:00N 34°37' E 135°11'611.5
2017-Sep-15 06:30N 34°38' E 135°18'7 1.1
2017-Sep-15 00:41N 34°39' E 135°25'2 8.5
2017-Sep-15 00:30N 34°38' E 135°24'1 1.6
2017-Sep-14 23:50N 34°38' E 135°25'0 0.0
2017-Sep-14 23:26N 34°38' E 135°25'1 1.4
2017-Sep-14 22:57N 34°38' E 135°24'0 0.0
2017-Sep-14 22:15N 34°38' E 135°24'0 0.0
2017-Sep-14 21:39N 34°38' E 135°24'0 0.1
2017-Sep-14 21:21N 34°38' E 135°24'0 1.0
2017-Sep-14 21:00N 34°38' E 135°24'5 8.8
2017-Sep-14 20:28N 34°36' E 135°18'4 9.3
2017-Sep-14 20:00N 34°35' E 135°13'5 9.2
2017-Sep-14 19:28N 34°35' E 135°07'5 0.2
2017-Sep-13 08:18N 34°37' E 135°01'310.4
2017-Sep-13 07:59N 34°36' E 135°05'510.1
2017-Sep-13 07:29N 34°37' E 135°11'610.6
2017-Sep-13 06:57N 34°38' E 135°18'6 0.9
2017-Sep-13 00:24N 34°42' E 135°24'3 7.5
2017-Sep-13 00:00N 34°39' E 135°22'3 2.1
2017-Sep-12 22:39N 34°38' E 135°25'0 0.0
2017-Sep-12 22:21N 34°38' E 135°25'0 0.0
2017-Sep-12 21:57N 34°38' E 135°25'0 0.0
2017-Sep-12 21:27N 34°38' E 135°25'0 0.0
2017-Sep-12 20:52N 34°38' E 135°25'1 1.9
2017-Sep-12 20:29N 34°38' E 135°24'4 8.6
2017-Sep-12 20:01N 34°36' E 135°19'5 9.2
2017-Sep-12 19:30N 34°35' E 135°14'5 9.7
2017-Sep-12 18:58N 34°35' E 135°07'  
2017-Sep-09 14:01N 34°36' E 135°04'110.2
2017-Sep-09 13:57N 34°36' E 135°05'5 9.7
2017-Sep-09 13:29N 34°36' E 135°10'510.1
2017-Sep-09 13:00N 34°36' E 135°16'510.0
2017-Sep-09 12:29N 34°36' E 135°22'3 0.2
2017-Sep-08 20:27N 34°36' E 135°25'4 8.9
2017-Sep-08 20:00N 34°36' E 135°21'5 9.4
2017-Sep-08 19:31N 34°35' E 135°15'5 9.6
2017-Sep-08 19:00N 34°35' E 135°09'  
Track history (hours):
 
Tides and Currents Weather Stations Pressure Air Temp Water Temp Dewpoint Dewpoint Depression Visibility Wind Speed Wind Dir Waves Ship Positions

Miyajimamaru

Last reported at 2017-Sep-15 07:26 UTC. Time now 2017-Sep-22 04:17 UTC.
Position N 34°36' E 135°05'.

Length 52 m.

Type: Cargo ship. MMSI: 431401913.

Date/timePositionNaut miles runAvg speedWind from/ knotsBaromVisibWave heightAir tempDewpointWater temp
2017-Sep-15 07:26N 34°36' E 135°05'511.4
2017-Sep-15 07:00N 34°37' E 135°11'611.5
2017-Sep-15 06:30N 34°38' E 135°18'7 1.1
2017-Sep-15 00:41N 34°39' E 135°25'2 8.5
2017-Sep-15 00:30N 34°38' E 135°24'1 1.6
2017-Sep-14 23:50N 34°38' E 135°25'0 0.0
2017-Sep-14 23:26N 34°38' E 135°25'1 1.4
2017-Sep-14 22:57N 34°38' E 135°24'0 0.0
2017-Sep-14 22:15N 34°38' E 135°24'0 0.0
2017-Sep-14 21:39N 34°38' E 135°24'0 0.1
2017-Sep-14 21:21N 34°38' E 135°24'0 1.0
2017-Sep-14 21:00N 34°38' E 135°24'5 8.8
2017-Sep-14 20:28N 34°36' E 135°18'4 9.3
2017-Sep-14 20:00N 34°35' E 135°13'5 9.2
2017-Sep-14 19:28N 34°35' E 135°07'5 0.2
2017-Sep-13 08:18N 34°37' E 135°01'310.4
2017-Sep-13 07:59N 34°36' E 135°05'510.1
2017-Sep-13 07:29N 34°37' E 135°11'610.6
2017-Sep-13 06:57N 34°38' E 135°18'6 0.9
2017-Sep-13 00:24N 34°42' E 135°24'3 7.5
2017-Sep-13 00:00N 34°39' E 135°22'3 2.1
2017-Sep-12 22:39N 34°38' E 135°25'0 0.0
2017-Sep-12 22:21N 34°38' E 135°25'0 0.0
2017-Sep-12 21:57N 34°38' E 135°25'0 0.0
2017-Sep-12 21:27N 34°38' E 135°25'0 0.0
2017-Sep-12 20:52N 34°38' E 135°25'1 1.9
2017-Sep-12 20:29N 34°38' E 135°24'4 8.6
2017-Sep-12 20:01N 34°36' E 135°19'5 9.2
2017-Sep-12 19:30N 34°35' E 135°14'5 9.7
2017-Sep-12 18:58N 34°35' E 135°07'  
2017-Sep-09 14:01N 34°36' E 135°04'110.2
2017-Sep-09 13:57N 34°36' E 135°05'5 9.7
2017-Sep-09 13:29N 34°36' E 135°10'510.1
2017-Sep-09 13:00N 34°36' E 135°16'510.0
2017-Sep-09 12:29N 34°36' E 135°22'3 0.2
2017-Sep-08 20:27N 34°36' E 135°25'4 8.9
2017-Sep-08 20:00N 34°36' E 135°21'5 9.4
2017-Sep-08 19:31N 34°35' E 135°15'5 9.6
2017-Sep-08 19:00N 34°35' E 135°09'  

Dump ship's entire track history